• Join FlightAware (Why Join?)
  • Login
  • US Flag GB Flag 
00:09 EDT


 

Airport Tracker/Info


-or-


 

Live Flight TrackerFlight Track Log ✈ USC105 ✈ 18-Apr-2013 ✈ KLCK - KBKL

Flight Track Log - Related Links

Times and Time Zones

All times are in EDT time to prevent confusion due to time zone crossing. See the USC105 flight status page for this flight to view local times or setup timezone preferences in your user account.

Time Position Orientation Groundspeed Altitude Reporting Facility
EDT Latitude Longitude Course Direction KTS MPH feet Rate Location/Type
21:57 39.8058 -82.9419 229° Southwest 129 148 800  Level Indianapolis Center
21:58 39.7847 -82.9736 229° Southwest 111 128 1,700 660 Climbing Indianapolis Center
21:59 39.8214 -82.9881 343° North 160 184 2,300 600 Climbing Indianapolis Center
22:00 39.8639 -82.9581 28° Northeast 170 196 3,000 600 Climbing Indianapolis Center
22:01 39.9072 -82.9286 28° Northeast 173 199 3,600 600 Climbing Indianapolis Center
22:02 39.9525 -82.8986 27° Northeast 177 204 4,300 660 Climbing Indianapolis Center
22:03 39.9958 -82.8656 30° Northeast 178 205 5,000 660 Climbing Indianapolis Center
22:05 40.0833 -82.7983 30° Northeast 183 211 6,400 600 Climbing Indianapolis Center
22:06 40.1356 -82.7594 30° Northeast 185 213 7,000 240 Climbing Indianapolis Center
22:07 40.1878 -82.7183 31° Northeast 215 247 7,000  Level Indianapolis Center
22:08 40.2403 -82.6767 31° Northeast 219 252 7,000  Level Indianapolis Center
22:09 40.2894 -82.6403 29° Northeast 225 259 7,000  Level Indianapolis Center
22:10 40.3450 -82.5972 31° Northeast 230 265 7,000  Level Indianapolis Center
22:11 40.4006 -82.5569 29° Northeast 228 262 7,000  Level Indianapolis Center
22:12 40.4564 -82.5142 30° Northeast 229 264 7,000  Level Indianapolis Center
22:13 40.5197 -82.4631 32° Northeast 228 262 7,000  Level Indianapolis Center
22:14 40.5744 -82.4197 31° Northeast 227 261 7,000  Level Indianapolis Center
22:15 40.6314 -82.3781 29° Northeast 231 266 7,000  Level Indianapolis Center
22:16 40.6578 -82.3594 28° Northeast 229 264 7,000  Level Cleveland Center
22:17 40.7128 -82.3169 30° Northeast 231 266 7,000  Level Cleveland Center
22:18 40.7697 -82.2747 29° Northeast 227 261 7,000 -300 Level Cleveland Center
22:18 40.8222 -82.2350 30° Northeast 237 273 6,500 -480 Descending Cleveland Center
22:19 40.8792 -82.1869 33° Northeast 253 291 6,100 -600 Descending Cleveland Center
22:21 40.9489 -82.1364 29° Northeast 247 284 5,300 -660 Descending Cleveland Center
22:22 41.0014 -82.0936 32° Northeast 239 275 4,800 -540 Descending Cleveland Center
22:23 41.0583 -82.0508 30° Northeast 228 262 4,300 -480 Descending Cleveland Center
22:24 41.1047 -81.9994 40° Northeast 213 245 3,800 -540 Descending Cleveland Center
22:25 41.1556 -81.9428 40° Northeast 205 236 3,200 -420 Descending Cleveland Center
22:26 41.1894 -81.9075 38° Northeast 191 220 3,000 -120 Descending Cleveland Center
22:27 41.2356 -81.8642 35° Northeast 162 186 3,000  Level Cleveland Center
22:28 41.2631 -81.8289 44° Northeast 160 184 3,000  Level Cleveland Center
22:29 41.3011 -81.7936 35° Northeast 160 184 3,000  Level Cleveland Center
22:30 41.3389 -81.7611 33° Northeast 157 181 3,000  Level Cleveland Center
22:31 41.3747 -81.7231 39° Northeast 159 183 3,000  Level Cleveland Center
22:32 41.4064 -81.6906 38° Northeast 155 178 3,000 -60 Level Cleveland Center
22:33 41.4400 -81.6522 41° Northeast 161 185 2,900 -120 Descending Cleveland Center